createdAt,value
2023-09-15T00:02:09.772Z,4.05
2023-09-15T00:06:12.659Z,4.04
2023-09-15T00:12:16.621Z,4.04
2023-09-15T00:16:19.240Z,4.04
2023-09-15T00:18:20.969Z,4.04
2023-09-15T00:22:24.244Z,4.04
2023-09-15T00:26:26.546Z,4.04
2023-09-15T00:28:27.761Z,4.04
2023-09-15T00:32:30.721Z,4.04
2023-09-15T00:38:34.881Z,4.04
2023-09-15T00:42:36.962Z,4.04
2023-09-15T00:44:38.262Z,4.03
2023-09-15T00:48:40.695Z,4.04
2023-09-15T00:54:44.827Z,4.03
2023-09-15T01:00:50.208Z,4.03
2023-09-15T01:04:53.026Z,4.03
2023-09-15T01:08:56.400Z,4.03
2023-09-15T01:10:57.757Z,4.03
2023-09-15T01:15:09.706Z,4.03
2023-09-15T01:19:03.733Z,4.03
2023-09-15T01:21:05.266Z,4.03
2023-09-15T01:25:08.327Z,4.02
2023-09-15T01:27:10.045Z,4.02
2023-09-15T01:29:11.526Z,4.02
2023-09-15T01:31:13.008Z,4.02
2023-09-15T01:37:16.575Z,4.02
2023-09-15T01:39:17.885Z,4.02
2023-09-15T01:43:20.560Z,4.02
2023-09-15T01:47:22.817Z,4.02
2023-09-15T01:53:27.760Z,4.02
2023-09-15T01:57:30.371Z,4.02
2023-09-15T01:59:32.281Z,4.02
2023-09-15T02:03:35.689Z,4.01
2023-09-15T02:07:38.244Z,4.01
2023-09-15T02:09:40.099Z,4.01
2023-09-15T02:13:43.144Z,4.01
2023-09-15T02:19:47.072Z,4.01
2023-09-15T02:25:50.804Z,4.01
2023-09-15T02:29:53.711Z,4.01
2023-09-15T02:35:58.389Z,4.01
2023-09-15T02:40:00.952Z,4
2023-09-15T02:42:02.090Z,4
2023-09-15T02:46:04.859Z,4
2023-09-15T02:50:08.385Z,4
2023-09-15T02:52:09.738Z,4
2023-09-15T02:56:12.817Z,4
2023-09-15T03:02:17.289Z,4
2023-09-15T03:08:22.006Z,4
2023-09-15T03:12:25.819Z,4
2023-09-15T03:18:29.807Z,4
2023-09-15T03:22:32.236Z,4
2023-09-15T03:24:33.770Z,3.99
2023-09-15T03:28:36.972Z,3.99
2023-09-15T03:32:39.743Z,3.99
2023-09-15T03:34:41.502Z,3.99
2023-09-15T03:38:44.063Z,3.99
2023-09-15T03:44:48.435Z,3.99
2023-09-15T03:50:54.001Z,3.99
2023-09-15T03:54:56.822Z,3.99
2023-09-15T03:55:40.664Z,3.98
2023-09-15T04:01:45.052Z,3.98
2023-09-15T04:05:48.060Z,3.99
2023-09-15T04:09:51.123Z,3.98
2023-09-15T04:11:52.227Z,3.98
2023-09-15T04:15:54.901Z,3.98
2023-09-15T04:19:57.673Z,3.98
2023-09-15T04:21:58.743Z,3.98
2023-09-15T04:26:01.859Z,3.98
2023-09-15T04:28:03.174Z,3.98
2023-09-15T04:32:05.404Z,3.98
2023-09-15T04:38:10.528Z,3.98
2023-09-15T04:44:14.250Z,3.98
2023-09-15T04:48:17.131Z,3.97
2023-09-15T04:54:21.747Z,3.98
2023-09-15T04:58:24.260Z,3.97
2023-09-15T05:00:26.107Z,3.97
2023-09-15T05:04:29.072Z,3.97
2023-09-15T05:08:31.887Z,3.97
2023-09-15T05:10:33.050Z,3.97
2023-09-15T05:14:36.713Z,3.97
2023-09-15T05:20:40.241Z,3.96
2023-09-15T05:26:44.774Z,3.97
2023-09-15T05:30:47.121Z,3.96
2023-09-15T05:36:50.773Z,3.96
2023-09-15T05:40:53.736Z,3.96
2023-09-15T05:42:55.484Z,3.96
2023-09-15T05:46:58.316Z,3.96
2023-09-15T05:51:00.849Z,3.96
2023-09-15T05:53:02.266Z,3.96
2023-09-15T05:57:04.875Z,3.96
2023-09-15T06:03:08.789Z,3.96
2023-09-15T06:07:11.676Z,3.97
2023-09-15T06:09:12.844Z,3.97
2023-09-15T06:13:15.301Z,3.98
2023-09-15T06:19:19.024Z,3.98
2023-09-15T06:21:20.047Z,3.98
2023-09-15T06:25:23.085Z,3.99
2023-09-15T06:29:25.832Z,3.99
2023-09-15T06:35:29.373Z,4
2023-09-15T06:39:31.716Z,4
2023-09-15T06:41:33.014Z,4
2023-09-15T06:45:35.676Z,4.02
2023-09-15T06:49:39.060Z,4.04
2023-09-15T06:51:39.988Z,4.04
2023-09-15T06:55:42.428Z,4.04
2023-09-15T07:01:47.175Z,4.06
2023-09-15T07:07:49.559Z,4.07
2023-09-15T07:11:52.495Z,4.08
2023-09-15T07:17:57.044Z,4.08
2023-09-15T07:22:00.551Z,4.08
2023-09-15T07:24:01.647Z,4.09
2023-09-15T07:28:04.846Z,4.09
2023-09-15T07:32:07.561Z,4.1
2023-09-15T07:34:09.437Z,4.1
2023-09-15T07:38:12.049Z,4.11
2023-09-15T07:44:15.477Z,4.12
2023-09-15T07:50:19.216Z,4.12
2023-09-15T07:54:21.711Z,4.13
2023-09-15T08:00:27.884Z,4.14
2023-09-15T08:04:30.097Z,4.14
2023-09-15T08:06:31.124Z,4.14
2023-09-15T08:10:34.139Z,4.15
2023-09-15T08:14:36.443Z,4.16
2023-09-15T08:16:37.988Z,4.16
2023-09-15T08:20:41.200Z,4.16
2023-09-15T08:24:44.564Z,4.17
2023-09-15T08:26:45.725Z,4.17
2023-09-15T08:30:48.412Z,4.17
2023-09-15T08:32:49.443Z,4.17
2023-09-15T08:34:50.512Z,4.17
2023-09-15T08:36:52.458Z,4.17
2023-09-15T08:38:53.653Z,4.18
2023-09-15T08:44:57.729Z,4.18
2023-09-15T08:48:59.782Z,4.19
2023-09-15T08:53:03.262Z,4.19
2023-09-15T08:59:08.465Z,4.19
2023-09-15T09:03:10.198Z,4.19
2023-09-15T09:05:11.102Z,4.19
2023-09-15T09:09:13.410Z,4.19
2023-09-15T09:13:21.516Z,4.19
2023-09-15T09:15:18.229Z,4.19
2023-09-15T09:19:21.149Z,4.19
2023-09-15T09:25:25.633Z,4.2
2023-09-15T09:31:29.609Z,4.2
2023-09-15T09:35:31.847Z,4.2
2023-09-15T09:41:35.992Z,4.2
2023-09-15T09:45:38.946Z,4.2
2023-09-15T09:47:40.602Z,4.2
2023-09-15T09:51:43.027Z,4.2
2023-09-15T09:55:44.999Z,4.2
2023-09-15T09:57:46.702Z,4.2
2023-09-15T10:01:49.215Z,4.19
2023-09-15T10:07:54.668Z,4.18
2023-09-15T10:11:55.910Z,4.18
2023-09-15T10:13:57.199Z,4.18
2023-09-15T10:17:59.453Z,4.18
2023-09-15T10:24:02.230Z,4.18
2023-09-15T10:26:03.158Z,4.17
2023-09-15T10:30:05.922Z,4.17
2023-09-15T10:34:08.351Z,4.17
2023-09-15T10:40:13.672Z,4.17
2023-09-15T10:40:57.333Z,4.17
2023-09-15T10:44:59.702Z,4.17
2023-09-15T10:49:02.328Z,4.17
2023-09-15T10:51:03.733Z,4.17
2023-09-15T10:55:06.219Z,4.17
2023-09-15T11:01:10.635Z,4.17
2023-09-15T11:07:14.225Z,4.17
2023-09-15T11:11:16.206Z,4.16
2023-09-15T11:17:20.785Z,4.16
2023-09-15T11:21:22.940Z,4.16
2023-09-15T11:23:24.207Z,4.16
2023-09-15T11:27:27.479Z,4.16
2023-09-15T11:31:29.602Z,4.16
2023-09-15T11:33:31.401Z,4.16
2023-09-15T11:37:33.582Z,4.16
2023-09-15T11:43:36.749Z,4.16
2023-09-15T11:47:39.268Z,4.16
2023-09-15T11:49:40.059Z,4.15
2023-09-15T11:51:41.055Z,4.16
2023-09-15T11:53:42.398Z,4.15
2023-09-15T11:59:46.673Z,4.15
2023-09-15T12:05:50.865Z,4.15
2023-09-15T12:09:52.929Z,4.15
2023-09-15T12:15:56.756Z,4.15
2023-09-15T12:19:58.833Z,4.14
2023-09-15T12:22:00.247Z,4.14
2023-09-15T12:26:02.649Z,4.14
2023-09-15T12:30:05.725Z,4.14
2023-09-15T12:32:06.434Z,4.14
2023-09-15T12:36:09.649Z,4.14
2023-09-15T12:42:14.730Z,4.14
2023-09-15T12:48:16.919Z,4.14
2023-09-15T12:52:19.434Z,4.14
2023-09-15T12:58:23.745Z,4.13
2023-09-15T13:02:26.740Z,4.16
2023-09-15T13:04:28.346Z,4.17
2023-09-15T13:08:30.162Z,4.17
2023-09-15T13:12:32.381Z,4.17
2023-09-15T13:14:33.333Z,4.18
2023-09-15T13:18:35.883Z,4.18
2023-09-15T13:24:41.346Z,4.19
2023-09-15T13:30:45.109Z,4.19
2023-09-15T13:34:48.033Z,4.19
2023-09-15T13:40:51.825Z,4.19
2023-09-15T13:44:53.949Z,4.19
2023-09-15T13:46:55.643Z,4.19
2023-09-15T13:50:57.661Z,4.19
2023-09-15T13:55:01.059Z,4.19
2023-09-15T13:57:04.048Z,4.19
2023-09-15T14:01:04.490Z,4.19
2023-09-15T14:07:07.707Z,4.19
2023-09-15T14:11:10.628Z,4.2
2023-09-15T14:13:11.913Z,4.2
2023-09-15T14:17:14.220Z,4.2
2023-09-15T14:23:18.345Z,4.2
2023-09-15T14:29:22.356Z,4.2
2023-09-15T14:33:24.341Z,4.18
2023-09-15T14:39:28.793Z,4.18
2023-09-15T14:43:31.120Z,4.18
2023-09-15T14:45:32.871Z,4.18
2023-09-15T14:49:35.512Z,4.18
2023-09-15T14:53:38.387Z,4.17
2023-09-15T14:55:39.772Z,4.18
2023-09-15T14:59:41.724Z,4.17
2023-09-15T15:05:46.062Z,4.17
2023-09-15T15:11:49.686Z,4.17
2023-09-15T15:15:52.904Z,4.17
2023-09-15T15:21:57.333Z,4.17
2023-09-15T15:23:59.035Z,4.17
2023-09-15T15:28:01.801Z,4.17
2023-09-15T15:32:03.882Z,4.17
2023-09-15T15:36:06.556Z,4.16
2023-09-15T15:38:07.579Z,4.17
2023-09-15T15:42:10.557Z,4.17
2023-09-15T15:46:12.423Z,4.16
2023-09-15T15:48:13.369Z,4.16
2023-09-15T15:52:16.551Z,4.16
2023-09-15T15:54:17.385Z,4.16
2023-09-15T15:58:19.608Z,4.16
2023-09-15T16:04:24.590Z,4.16
2023-09-15T16:10:28.814Z,4.16
2023-09-15T16:14:31.879Z,4.16
2023-09-15T16:20:35.085Z,4.16
2023-09-15T16:24:38.156Z,4.15
2023-09-15T16:26:39.849Z,4.16
2023-09-15T16:30:43.143Z,4.15
2023-09-15T16:34:46.188Z,4.15
2023-09-15T16:36:47.062Z,4.15
2023-09-15T16:40:57.860Z,4.15
2023-09-15T16:46:52.803Z,4.15
2023-09-15T16:52:56.170Z,4.14
2023-09-15T16:56:58.963Z,4.14
2023-09-15T16:58:59.875Z,4.14
2023-09-15T17:03:03.094Z,4.14
2023-09-15T17:07:05.477Z,4.14
2023-09-15T17:09:06.676Z,4.14
2023-09-15T17:13:08.825Z,4.14
2023-09-15T17:19:12.407Z,4.14
2023-09-15T17:25:15.659Z,4.14
2023-09-15T17:25:59.356Z,4.13
2023-09-15T17:30:01.722Z,4.13
2023-09-15T17:36:05.909Z,4.13
2023-09-15T17:40:08.608Z,4.13
2023-09-15T17:46:12.043Z,4.13
2023-09-15T17:50:14.644Z,4.13
2023-09-15T17:52:15.506Z,4.13
2023-09-15T17:56:18.001Z,4.12
2023-09-15T18:00:20.994Z,4.12
2023-09-15T18:02:22.381Z,4.12
2023-09-15T18:06:24.950Z,4.12
2023-09-15T18:12:28.374Z,4.12
2023-09-15T18:18:33.419Z,4.12
2023-09-15T18:22:35.962Z,4.12
2023-09-15T18:28:39.763Z,4.12
2023-09-15T18:32:43.050Z,4.11
2023-09-15T18:34:44.593Z,4.12
2023-09-15T18:38:46.816Z,4.12
2023-09-15T18:42:49.438Z,4.11
2023-09-15T18:44:50.754Z,4.11
2023-09-15T18:48:54.060Z,4.11
2023-09-15T18:54:58.013Z,4.11
2023-09-15T19:01:03.012Z,4.11
2023-09-15T19:05:06.186Z,4.11
2023-09-15T19:11:09.971Z,4.11
2023-09-15T19:15:12.549Z,4.1
2023-09-15T19:17:14.380Z,4.1
2023-09-15T19:21:17.335Z,4.1
2023-09-15T19:25:19.786Z,4.1
2023-09-15T19:27:20.876Z,4.1
2023-09-15T19:31:23.597Z,4.1
2023-09-15T19:37:27.169Z,4.1
2023-09-15T19:41:29.708Z,4.1
2023-09-15T19:43:31.119Z,4.1
2023-09-15T19:45:32.047Z,4.1
2023-09-15T19:47:33.003Z,4.1
2023-09-15T19:53:36.762Z,4.09
2023-09-15T19:55:38.453Z,4.1
2023-09-15T19:59:41.698Z,4.09
2023-09-15T20:03:44.365Z,4.09
2023-09-15T20:09:49.336Z,4.09
2023-09-15T20:13:52.347Z,4.09
2023-09-15T20:15:53.751Z,4.09
2023-09-15T20:19:56.635Z,4.08
2023-09-15T20:23:59.383Z,4.08
2023-09-15T20:26:00.282Z,4.09
2023-09-15T20:30:02.710Z,4.08
2023-09-15T20:36:07.575Z,4.08
2023-09-15T20:42:12.194Z,4.08
2023-09-15T20:46:14.578Z,4.08
2023-09-15T20:52:17.544Z,4.08
2023-09-15T20:56:20.305Z,4.08
2023-09-15T20:58:21.688Z,4.08
2023-09-15T21:02:24.479Z,4.08
2023-09-15T21:06:27.624Z,4.08
2023-09-15T21:08:29.165Z,4.07
2023-09-15T21:12:31.203Z,4.07
2023-09-15T21:18:34.986Z,4.07
2023-09-15T21:24:39.705Z,4.07
2023-09-15T21:28:42.269Z,4.07
2023-09-15T21:34:45.667Z,4.07
2023-09-15T21:40:49.605Z,4.07
2023-09-15T21:44:52.305Z,4.06
2023-09-15T21:48:55.859Z,4.06
2023-09-15T21:50:56.784Z,4.06
2023-09-15T21:54:59.752Z,4.06
2023-09-15T21:59:02.741Z,4.06
2023-09-15T22:01:04.332Z,4.06
2023-09-15T22:05:07.156Z,4.06
2023-09-15T22:07:08.999Z,4.06
2023-09-15T22:09:10.686Z,4.06
2023-09-15T22:11:11.699Z,4.06
2023-09-15T22:17:15.755Z,4.06
2023-09-15T22:19:17.020Z,4.06
2023-09-15T22:23:19.409Z,4.06
2023-09-15T22:27:21.686Z,4.05
2023-09-15T22:33:24.882Z,4.05
2023-09-15T22:37:27.662Z,4.05
2023-09-15T22:39:28.864Z,4.05
2023-09-15T22:43:31.108Z,4.05
2023-09-15T22:47:34.439Z,4.04
2023-09-15T22:49:36.009Z,4.05
2023-09-15T22:53:39.018Z,4.04
2023-09-15T22:59:42.574Z,4.04
2023-09-15T23:05:46.492Z,4.04
2023-09-15T23:09:48.880Z,4.04
2023-09-15T23:15:52.834Z,4.04
2023-09-15T23:19:55.227Z,4.04
2023-09-15T23:21:56.737Z,4.04
2023-09-15T23:25:59.125Z,4.04
2023-09-15T23:30:02.051Z,4.04
2023-09-15T23:32:03.925Z,4.04
2023-09-15T23:36:06.173Z,4.04
2023-09-15T23:42:10.297Z,4.03
2023-09-15T23:46:12.608Z,4.03
2023-09-15T23:48:14.148Z,4.03
2023-09-15T23:50:15.071Z,4.03
2023-09-15T23:52:16.557Z,4.03
2023-09-15T23:58:20.755Z,4.03
